createdAt,value
2022-12-31T00:01:34.104Z,11.54
2022-12-31T00:03:42.611Z,11.53
2022-12-31T00:05:50.379Z,11.63
2022-12-31T00:07:58.190Z,11.69
2022-12-31T00:10:06.843Z,11.68
2022-12-31T00:12:17.195Z,11.70
2022-12-31T00:14:24.938Z,11.80
2022-12-31T00:16:36.599Z,11.79
2022-12-31T00:18:47.284Z,11.86
2022-12-31T00:20:55.227Z,11.87
2022-12-31T00:23:03.394Z,11.89
2022-12-31T00:25:12.559Z,11.85
2022-12-31T00:27:22.981Z,11.86
2022-12-31T00:29:30.721Z,11.85
2022-12-31T00:31:40.415Z,11.81
2022-12-31T00:33:48.556Z,11.95
2022-12-31T00:35:56.345Z,12.04
2022-12-31T00:38:04.038Z,12.16
2022-12-31T00:40:14.664Z,12.02
2022-12-31T00:42:25.225Z,12.06
2022-12-31T00:44:33.967Z,12.09
2022-12-31T00:48:48.890Z,12.04
2022-12-31T00:50:57.740Z,12.01
2022-12-31T00:53:05.510Z,12.13
2022-12-31T00:55:13.182Z,12.00
2022-12-31T00:57:20.977Z,12.20
2022-12-31T00:59:31.304Z,12.27
2022-12-31T01:01:40.966Z,12.23
2022-12-31T01:03:50.511Z,12.23
2022-12-31T01:06:01.703Z,12.21
2022-12-31T01:08:09.523Z,12.18
2022-12-31T01:10:38.076Z,12.21
2022-12-31T01:12:45.869Z,12.09
2022-12-31T01:14:56.262Z,12.19
2022-12-31T01:17:03.957Z,11.98
2022-12-31T01:19:15.597Z,12.00
2022-12-31T01:21:24.745Z,12.03
2022-12-31T01:23:32.676Z,11.92
2022-12-31T01:25:41.954Z,11.98
2022-12-31T01:27:49.680Z,11.85
2022-12-31T01:29:59.985Z,11.81
2022-12-31T01:32:08.466Z,11.76
2022-12-31T01:34:16.264Z,11.78
2022-12-31T01:36:27.019Z,11.75
2022-12-31T01:38:35.854Z,11.65
2022-12-31T01:40:44.219Z,11.64
2022-12-31T01:42:57.270Z,11.65
2022-12-31T01:45:13.831Z,11.53
2022-12-31T01:47:32.067Z,11.47
2022-12-31T01:49:45.073Z,11.43
2022-12-31T01:51:56.332Z,11.30
2022-12-31T01:54:06.453Z,11.40
2022-12-31T01:56:14.278Z,11.47
2022-12-31T01:58:25.850Z,11.49
2022-12-31T02:00:36.331Z,11.35
2022-12-31T02:02:44.254Z,11.52
2022-12-31T02:04:53.908Z,11.46
2022-12-31T02:07:03.930Z,11.44
2022-12-31T02:09:12.395Z,11.30
2022-12-31T02:11:25.083Z,11.23
2022-12-31T02:13:32.839Z,11.34
2022-12-31T02:15:53.718Z,11.34
2022-12-31T02:18:09.078Z,11.25
2022-12-31T02:20:38.626Z,11.20
2022-12-31T02:23:04.412Z,11.22
2022-12-31T02:25:39.577Z,11.23
2022-12-31T02:27:56.305Z,11.33
2022-12-31T02:30:20.017Z,11.35
2022-12-31T02:32:34.771Z,11.27
2022-12-31T02:34:50.586Z,11.29
2022-12-31T02:37:01.913Z,11.44
2022-12-31T02:39:12.139Z,11.49
2022-12-31T02:41:34.049Z,11.50
2022-12-31T02:43:49.069Z,11.54
2022-12-31T02:46:08.502Z,11.60
2022-12-31T02:48:29.790Z,11.69
2022-12-31T02:50:55.787Z,11.80
2022-12-31T02:53:17.473Z,11.89
2022-12-31T02:55:34.952Z,11.81
2022-12-31T02:57:49.830Z,11.96
2022-12-31T03:00:14.759Z,12.16
2022-12-31T03:02:24.743Z,11.97
2022-12-31T03:04:36.303Z,12.00
2022-12-31T03:06:45.854Z,12.15
2022-12-31T03:09:07.826Z,12.09
2022-12-31T03:11:35.619Z,12.11
2022-12-31T03:13:40.783Z,12.18
2022-12-31T03:15:48.500Z,12.39
2022-12-31T03:18:04.540Z,12.24
2022-12-31T03:20:25.243Z,12.14
2022-12-31T03:22:31.119Z,12.12
2022-12-31T03:24:51.313Z,11.96
2022-12-31T03:26:59.016Z,11.89
2022-12-31T03:29:06.792Z,11.98
2022-12-31T03:31:14.587Z,11.94
2022-12-31T03:33:25.151Z,11.86
2022-12-31T03:35:35.611Z,12.05
2022-12-31T03:37:43.892Z,11.96
2022-12-31T03:39:51.587Z,11.89
2022-12-31T03:41:59.415Z,11.93
2022-12-31T03:44:07.446Z,12.12
2022-12-31T03:46:15.298Z,12.16
2022-12-31T03:48:26.339Z,12.28
2022-12-31T03:50:34.615Z,12.33
2022-12-31T03:52:42.816Z,12.31
2022-12-31T03:54:50.636Z,12.34
2022-12-31T03:57:00.221Z,12.56
2022-12-31T03:59:08.271Z,12.60
2022-12-31T04:01:16.076Z,12.58
2022-12-31T04:03:26.585Z,12.64
2022-12-31T04:05:34.353Z,12.64
2022-12-31T04:07:42.741Z,12.65
2022-12-31T04:09:50.543Z,12.55
2022-12-31T04:11:58.401Z,12.53
2022-12-31T04:14:06.107Z,12.57
2022-12-31T04:16:14.076Z,12.51
2022-12-31T04:18:21.963Z,12.48
2022-12-31T04:20:32.313Z,12.51
2022-12-31T04:22:40.484Z,12.60
2022-12-31T04:24:48.226Z,12.63
2022-12-31T04:26:55.995Z,12.73
2022-12-31T04:29:03.797Z,12.77
2022-12-31T04:31:11.787Z,12.89
2022-12-31T04:33:19.508Z,12.83
2022-12-31T04:35:27.263Z,12.80
2022-12-31T04:37:37.621Z,12.78
2022-12-31T04:39:45.460Z,12.82
2022-12-31T04:41:53.276Z,12.77
2022-12-31T04:44:02.347Z,12.80
2022-12-31T04:46:10.180Z,12.67
2022-12-31T04:48:18.008Z,12.83
2022-12-31T04:50:25.938Z,12.82
2022-12-31T04:52:37.167Z,12.71
2022-12-31T04:54:52.643Z,12.96
2022-12-31T04:57:00.379Z,13.10
2022-12-31T04:59:09.003Z,12.96
2022-12-31T05:01:17.340Z,13.02
2022-12-31T05:03:28.921Z,12.96
2022-12-31T05:05:42.905Z,12.98
2022-12-31T05:07:50.582Z,12.91
2022-12-31T05:10:00.950Z,13.05
2022-12-31T05:12:09.311Z,12.92
2022-12-31T05:14:17.367Z,13.01
2022-12-31T05:16:25.141Z,12.93
2022-12-31T05:18:33.734Z,13.14
2022-12-31T05:20:41.590Z,13.21
2022-12-31T05:22:49.353Z,13.16
2022-12-31T05:24:57.194Z,13.08
2022-12-31T05:27:07.562Z,13.11
2022-12-31T05:29:15.351Z,12.90
2022-12-31T05:31:23.104Z,12.92
2022-12-31T05:33:30.884Z,12.78
2022-12-31T05:35:38.692Z,12.70
2022-12-31T05:37:47.071Z,12.76
2022-12-31T05:39:54.824Z,12.74
2022-12-31T05:42:02.582Z,12.74
2022-12-31T05:44:13.467Z,12.85
2022-12-31T05:46:21.242Z,12.86
2022-12-31T05:48:29.041Z,12.75
2022-12-31T05:50:36.855Z,12.76
2022-12-31T05:52:47.647Z,12.78
2022-12-31T05:54:55.645Z,12.70
2022-12-31T05:57:03.857Z,12.70
2022-12-31T05:59:14.288Z,12.68
2022-12-31T06:01:22.118Z,12.60
2022-12-31T06:03:29.955Z,12.54
2022-12-31T06:05:37.750Z,12.61
2022-12-31T06:07:45.529Z,12.79
2022-12-31T06:09:53.293Z,12.69
2022-12-31T06:12:01.117Z,12.64
2022-12-31T06:14:08.947Z,12.59
2022-12-31T06:16:19.273Z,12.64
2022-12-31T06:18:27.153Z,12.57
2022-12-31T06:20:34.909Z,12.53
2022-12-31T06:22:42.726Z,12.51
2022-12-31T06:24:50.531Z,12.70
2022-12-31T06:26:58.223Z,12.54
2022-12-31T06:29:06.096Z,12.63
2022-12-31T06:31:15.964Z,12.67
2022-12-31T06:33:26.331Z,12.80
2022-12-31T06:35:34.105Z,12.67
2022-12-31T06:37:41.925Z,12.66
2022-12-31T06:39:49.707Z,12.76
2022-12-31T06:41:57.650Z,12.68
2022-12-31T06:44:05.371Z,12.59
2022-12-31T06:46:16.194Z,12.69
2022-12-31T06:48:26.595Z,12.75
2022-12-31T06:50:34.429Z,12.80
2022-12-31T06:52:42.150Z,12.76
2022-12-31T06:54:51.250Z,12.83
2022-12-31T06:56:59.755Z,12.89
2022-12-31T06:59:08.257Z,12.87
2022-12-31T07:01:33.402Z,12.96
2022-12-31T07:03:54.177Z,13.10
2022-12-31T07:06:12.084Z,12.90
2022-12-31T07:08:32.938Z,12.83
2022-12-31T07:10:51.945Z,12.97
2022-12-31T07:13:13.091Z,13.04
2022-12-31T07:15:37.065Z,13.14
2022-12-31T07:17:55.978Z,12.97
2022-12-31T07:20:10.073Z,12.86
2022-12-31T07:22:20.743Z,12.80
2022-12-31T07:24:29.673Z,12.74
2022-12-31T07:27:03.369Z,12.77
2022-12-31T07:29:19.157Z,12.90
2022-12-31T07:31:37.514Z,12.85
2022-12-31T07:33:54.452Z,12.91
2022-12-31T07:36:20.011Z,13.11
2022-12-31T07:38:37.558Z,13.01
2022-12-31T07:40:57.947Z,13.05
2022-12-31T07:43:13.317Z,12.97
2022-12-31T07:45:27.392Z,13.11
2022-12-31T07:47:35.811Z,13.21
2022-12-31T07:49:45.861Z,13.18
2022-12-31T07:51:57.401Z,13.24
2022-12-31T07:54:10.177Z,13.38
2022-12-31T07:56:21.339Z,13.37
2022-12-31T07:58:42.901Z,13.48
2022-12-31T08:00:51.546Z,13.43
2022-12-31T08:03:19.729Z,13.35
2022-12-31T08:05:32.813Z,13.32
2022-12-31T08:07:52.396Z,13.53
2022-12-31T08:10:12.556Z,13.49
2022-12-31T08:12:24.569Z,13.54
2022-12-31T08:14:33.464Z,13.63
2022-12-31T08:16:42.007Z,13.67
2022-12-31T08:18:50.454Z,13.59
2022-12-31T08:21:11.323Z,13.74
2022-12-31T08:23:31.270Z,13.78
2022-12-31T08:25:50.571Z,14.07
2022-12-31T08:28:09.848Z,14.10
2022-12-31T08:30:19.171Z,14.01
2022-12-31T08:32:32.833Z,14.00
2022-12-31T08:34:50.737Z,14.05
2022-12-31T08:37:06.020Z,14.16
2022-12-31T08:39:28.397Z,14.09
2022-12-31T08:41:48.691Z,14.25
2022-12-31T08:44:08.929Z,14.33
2022-12-31T08:46:26.087Z,14.38
2022-12-31T08:48:40.414Z,14.52
2022-12-31T08:50:48.786Z,14.48
2022-12-31T08:52:57.808Z,14.48
2022-12-31T08:55:09.287Z,14.55
2022-12-31T08:57:26.910Z,14.48
2022-12-31T08:59:45.209Z,14.44
2022-12-31T09:02:31.496Z,14.52
2022-12-31T09:04:56.006Z,14.41
2022-12-31T09:07:05.882Z,14.63
2022-12-31T09:09:22.897Z,14.51
2022-12-31T09:11:43.171Z,14.45
2022-12-31T09:14:16.140Z,14.41
2022-12-31T09:16:33.053Z,14.52
2022-12-31T09:18:44.369Z,14.66
2022-12-31T09:20:52.641Z,14.76
2022-12-31T09:23:02.608Z,14.80
2022-12-31T09:25:16.602Z,15.09
2022-12-31T09:27:33.260Z,15.42
2022-12-31T09:29:51.680Z,16.13
2022-12-31T09:32:12.109Z,16.40
2022-12-31T09:34:27.132Z,16.81
2022-12-31T09:36:39.379Z,17.04
2022-12-31T09:38:54.810Z,17.31
2022-12-31T09:41:16.378Z,17.73
2022-12-31T09:43:57.352Z,18.67
2022-12-31T09:46:41.306Z,18.84
2022-12-31T09:49:18.981Z,18.69
2022-12-31T09:51:33.389Z,19.04
2022-12-31T09:54:06.987Z,19.45
2022-12-31T09:56:22.532Z,19.32
2022-12-31T09:58:46.934Z,19.28
2022-12-31T10:00:59.121Z,19.83
2022-12-31T10:03:33.381Z,19.91
2022-12-31T10:05:57.473Z,19.34
2022-12-31T10:08:17.462Z,18.73
2022-12-31T10:10:33.128Z,18.18
2022-12-31T10:13:09.025Z,17.34
2022-12-31T10:15:53.175Z,17.11
2022-12-31T10:18:10.044Z,16.91
2022-12-31T10:20:40.103Z,16.88
2022-12-31T10:23:23.975Z,16.77
2022-12-31T10:25:47.065Z,16.68
2022-12-31T10:28:03.083Z,16.80
2022-12-31T10:30:18.278Z,16.77
2022-12-31T10:32:40.438Z,16.77
2022-12-31T10:34:58.570Z,16.73
2022-12-31T10:37:14.481Z,16.64
2022-12-31T10:39:34.262Z,16.73
2022-12-31T10:42:03.591Z,16.65
2022-12-31T10:44:37.810Z,16.56
2022-12-31T10:47:14.887Z,16.50
2022-12-31T10:49:52.352Z,16.36
2022-12-31T10:52:30.008Z,16.25
2022-12-31T10:54:59.651Z,16.48
2022-12-31T10:57:42.562Z,16.49
2022-12-31T11:00:16.731Z,16.46
2022-12-31T11:02:52.781Z,16.41
2022-12-31T11:05:27.265Z,16.32
2022-12-31T11:08:09.668Z,16.24
2022-12-31T11:10:39.743Z,16.37
2022-12-31T11:13:10.332Z,16.30
2022-12-31T11:15:34.364Z,16.47
2022-12-31T11:17:53.333Z,16.53
2022-12-31T11:20:15.811Z,16.51
2022-12-31T11:22:40.149Z,16.55
2022-12-31T11:25:16.192Z,16.70
2022-12-31T11:27:37.685Z,16.64
2022-12-31T11:29:55.977Z,16.73
2022-12-31T11:32:12.159Z,16.79
2022-12-31T11:34:56.511Z,16.77
2022-12-31T11:37:23.185Z,16.86
2022-12-31T11:39:50.171Z,16.84
2022-12-31T11:42:14.738Z,16.88
2022-12-31T11:44:35.181Z,16.87
2022-12-31T11:47:00.449Z,16.94
2022-12-31T11:49:23.820Z,16.94
2022-12-31T11:51:53.437Z,17.01
2022-12-31T11:54:36.932Z,16.98
2022-12-31T11:56:50.080Z,17.10
2022-12-31T11:59:06.170Z,17.07
2022-12-31T12:01:23.189Z,16.91
2022-12-31T12:03:38.766Z,17.01
2022-12-31T12:05:46.637Z,17.02
2022-12-31T12:07:55.931Z,17.03
2022-12-31T12:10:07.316Z,17.06
2022-12-31T12:12:16.559Z,16.97
2022-12-31T12:14:37.387Z,17.01
2022-12-31T12:16:48.370Z,17.07
2022-12-31T12:19:06.418Z,17.18
2022-12-31T12:21:18.790Z,17.02
2022-12-31T12:23:28.506Z,17.12
2022-12-31T12:25:41.677Z,17.16
2022-12-31T12:27:49.834Z,17.21
2022-12-31T12:30:00.333Z,17.11
2022-12-31T12:32:10.729Z,17.20
2022-12-31T12:34:26.169Z,17.28
2022-12-31T12:36:34.987Z,17.40
2022-12-31T12:38:43.091Z,17.24
2022-12-31T12:40:59.827Z,17.23
2022-12-31T12:43:07.588Z,17.37
2022-12-31T12:45:22.593Z,17.24
2022-12-31T12:47:31.529Z,17.30
2022-12-31T12:49:45.506Z,17.24
2022-12-31T12:52:09.343Z,17.21
2022-12-31T12:54:33.535Z,17.27
2022-12-31T12:56:52.078Z,17.27
2022-12-31T12:59:25.582Z,17.37
2022-12-31T13:01:43.122Z,17.28
2022-12-31T13:04:38.152Z,17.32
2022-12-31T13:07:01.416Z,17.31
2022-12-31T13:09:24.873Z,17.28
2022-12-31T13:11:42.136Z,17.17
2022-12-31T13:13:57.152Z,17.07
2022-12-31T13:16:11.864Z,17.05
2022-12-31T13:18:34.069Z,17.06
2022-12-31T13:20:47.949Z,17.02
2022-12-31T13:23:05.921Z,17.01
2022-12-31T13:25:27.006Z,17.02
2022-12-31T13:27:38.168Z,16.93
2022-12-31T13:29:48.907Z,16.99
2022-12-31T13:31:58.865Z,16.77
2022-12-31T13:34:17.019Z,16.79
2022-12-31T13:36:28.030Z,16.77
2022-12-31T13:38:39.787Z,16.78
2022-12-31T13:40:52.572Z,16.63
2022-12-31T13:43:05.102Z,16.57
2022-12-31T13:45:17.813Z,16.60
2022-12-31T13:47:36.077Z,16.61
2022-12-31T13:49:58.012Z,16.59
2022-12-31T13:52:16.885Z,16.64
2022-12-31T13:54:35.432Z,16.79
2022-12-31T13:56:46.133Z,16.65
2022-12-31T13:58:59.773Z,16.52
2022-12-31T14:01:14.949Z,16.47
2022-12-31T14:03:28.384Z,16.44
2022-12-31T14:05:45.673Z,16.27
2022-12-31T14:07:56.386Z,16.22
2022-12-31T14:10:04.219Z,16.18
2022-12-31T14:12:28.530Z,16.05
2022-12-31T14:14:50.142Z,15.97
2022-12-31T14:17:05.202Z,15.98
2022-12-31T14:19:28.972Z,16.02
2022-12-31T14:21:50.007Z,15.97
2022-12-31T14:24:06.477Z,15.80
2022-12-31T14:26:26.099Z,15.75
2022-12-31T14:28:46.475Z,15.64
2022-12-31T14:30:59.801Z,15.54
2022-12-31T14:33:27.290Z,15.57
2022-12-31T14:35:58.683Z,15.64
2022-12-31T14:38:25.774Z,15.54
2022-12-31T14:40:53.229Z,15.52
2022-12-31T14:43:13.036Z,15.40
2022-12-31T14:45:30.408Z,15.37
2022-12-31T14:47:52.457Z,15.34
2022-12-31T14:50:07.774Z,15.30
2022-12-31T14:52:28.330Z,15.19
2022-12-31T14:54:40.856Z,15.12
2022-12-31T14:56:48.867Z,15.08
2022-12-31T14:58:58.931Z,15.09
2022-12-31T15:01:26.116Z,15.06
2022-12-31T15:03:45.007Z,15.04
2022-12-31T15:06:05.292Z,14.99
2022-12-31T15:08:29.569Z,14.91
2022-12-31T15:10:50.385Z,14.94
2022-12-31T15:13:06.157Z,14.87
2022-12-31T15:15:33.331Z,14.82
2022-12-31T15:17:53.908Z,14.74
2022-12-31T15:20:22.478Z,14.68
2022-12-31T15:22:40.353Z,14.76
2022-12-31T15:24:49.829Z,14.72
2022-12-31T15:27:02.540Z,14.66
2022-12-31T15:29:21.825Z,14.65
2022-12-31T15:31:30.456Z,14.66
2022-12-31T15:33:42.407Z,14.68
2022-12-31T15:35:53.984Z,14.71
2022-12-31T15:38:03.978Z,14.64
2022-12-31T15:40:25.106Z,14.61
2022-12-31T15:42:49.836Z,14.51
2022-12-31T15:45:03.633Z,14.41
2022-12-31T15:47:20.534Z,14.26
2022-12-31T15:49:33.213Z,14.31
2022-12-31T15:51:48.015Z,14.27
2022-12-31T15:54:00.897Z,14.17
2022-12-31T15:56:12.269Z,14.10
2022-12-31T15:58:25.563Z,14.04
2022-12-31T16:00:48.600Z,13.97
2022-12-31T16:02:57.516Z,14.12
2022-12-31T16:05:05.548Z,14.07
2022-12-31T16:07:15.161Z,14.06
2022-12-31T16:09:26.577Z,13.91
2022-12-31T16:11:38.355Z,14.20
2022-12-31T16:13:51.575Z,14.26
2022-12-31T16:16:04.712Z,14.10
2022-12-31T16:18:20.621Z,13.93
2022-12-31T16:20:33.707Z,13.96
2022-12-31T16:22:43.139Z,13.84
2022-12-31T16:25:29.048Z,13.73
2022-12-31T16:27:26.742Z,13.61
2022-12-31T16:29:39.339Z,13.55
2022-12-31T16:31:48.732Z,13.56
2022-12-31T16:34:06.235Z,13.54
2022-12-31T16:36:23.807Z,13.58
2022-12-31T16:38:50.459Z,13.62
2022-12-31T16:41:11.557Z,13.72
2022-12-31T16:43:29.087Z,13.73
2022-12-31T16:45:39.876Z,13.74
2022-12-31T16:47:48.248Z,13.78
2022-12-31T16:50:04.168Z,13.71
2022-12-31T16:52:30.758Z,13.66
2022-12-31T16:54:41.700Z,13.56
2022-12-31T16:56:49.823Z,13.56
2022-12-31T16:59:04.034Z,13.48
2022-12-31T17:01:20.021Z,13.40
2022-12-31T17:03:31.104Z,13.54
2022-12-31T17:05:59.084Z,13.57
2022-12-31T17:08:28.112Z,13.48
2022-12-31T17:10:39.154Z,13.44
2022-12-31T17:15:32.267Z,13.42
2022-12-31T17:17:44.217Z,13.35
2022-12-31T17:19:54.479Z,13.31
2022-12-31T17:22:08.722Z,13.30
2022-12-31T17:24:17.260Z,13.18
2022-12-31T17:26:28.445Z,13.23
2022-12-31T17:28:44.709Z,13.25
2022-12-31T17:30:55.914Z,13.28
2022-12-31T17:33:08.183Z,13.31
2022-12-31T17:35:30.707Z,13.25
2022-12-31T17:37:38.521Z,13.16
2022-12-31T17:39:52.132Z,13.14
2022-12-31T17:42:00.956Z,13.05
2022-12-31T17:44:08.866Z,12.97
2022-12-31T17:46:19.607Z,12.98
2022-12-31T17:48:34.531Z,12.83
2022-12-31T17:50:50.593Z,12.82
2022-12-31T17:53:02.421Z,12.78
2022-12-31T17:55:11.732Z,12.70
2022-12-31T17:57:33.534Z,12.72
2022-12-31T17:59:41.383Z,12.66
2022-12-31T18:01:50.062Z,12.92
2022-12-31T18:04:00.645Z,13.01
2022-12-31T18:06:14.527Z,13.01
2022-12-31T18:08:24.516Z,13.00
2022-12-31T18:10:34.632Z,12.87
2022-12-31T18:12:43.587Z,12.75
2022-12-31T18:14:51.467Z,12.78
2022-12-31T18:16:59.342Z,12.88
2022-12-31T18:19:45.740Z,13.01
2022-12-31T18:21:46.437Z,12.90
2022-12-31T18:26:03.666Z,13.02
2022-12-31T18:28:12.371Z,12.96
2022-12-31T18:30:20.754Z,13.05
2022-12-31T18:32:31.989Z,12.96
2022-12-31T18:34:42.949Z,12.92
2022-12-31T18:36:50.772Z,12.80
2022-12-31T18:38:58.976Z,12.82
2022-12-31T18:41:07.282Z,12.67
2022-12-31T18:43:18.980Z,12.63
2022-12-31T18:45:26.907Z,12.66
2022-12-31T18:47:37.751Z,12.55
2022-12-31T18:49:48.833Z,12.47
2022-12-31T18:51:57.240Z,12.48
2022-12-31T18:54:05.802Z,12.42
2022-12-31T18:56:15.716Z,12.51
2022-12-31T18:58:23.593Z,12.52
2022-12-31T19:00:31.368Z,12.45
2022-12-31T19:02:39.241Z,12.49
2022-12-31T19:04:49.876Z,12.51
2022-12-31T19:06:58.604Z,12.56
2022-12-31T19:09:23.684Z,12.47
2022-12-31T19:11:35.905Z,12.58
2022-12-31T19:13:43.922Z,12.56
2022-12-31T19:15:54.120Z,12.57
2022-12-31T19:18:02.414Z,12.44
2022-12-31T19:20:13.861Z,12.42
2022-12-31T19:22:21.678Z,12.31
2022-12-31T19:24:30.518Z,12.20
2022-12-31T19:26:43.281Z,12.27
2022-12-31T19:28:52.824Z,12.21
2022-12-31T19:31:00.637Z,12.11
2022-12-31T19:33:23.667Z,12.13
2022-12-31T19:35:37.453Z,12.18
2022-12-31T19:37:46.838Z,12.27
2022-12-31T19:39:54.680Z,12.26
2022-12-31T19:42:03.749Z,12.25
2022-12-31T19:44:17.545Z,12.11
2022-12-31T19:46:25.410Z,12.04
2022-12-31T19:48:33.332Z,12.15
2022-12-31T19:50:45.923Z,12.30
2022-12-31T19:52:55.843Z,12.35
2022-12-31T19:55:03.703Z,12.28
2022-12-31T19:57:11.544Z,12.28
2022-12-31T19:59:19.404Z,12.30
2022-12-31T20:01:27.920Z,12.27
2022-12-31T20:03:36.253Z,12.31
2022-12-31T20:05:48.014Z,12.33
2022-12-31T20:07:55.806Z,12.28
2022-12-31T20:10:04.074Z,12.24
2022-12-31T20:12:11.808Z,12.36
2022-12-31T20:14:19.649Z,12.32
2022-12-31T20:16:29.969Z,12.33
2022-12-31T20:18:39.675Z,12.25
2022-12-31T20:20:55.837Z,12.31
2022-12-31T20:23:03.945Z,12.30
2022-12-31T20:25:12.364Z,12.28
2022-12-31T20:27:20.196Z,12.27
2022-12-31T20:29:27.982Z,12.32
2022-12-31T20:31:35.856Z,12.31
2022-12-31T20:33:44.494Z,12.27
2022-12-31T20:35:54.861Z,12.23
2022-12-31T20:38:02.655Z,12.35
2022-12-31T20:40:12.262Z,12.41
2022-12-31T20:42:20.094Z,12.44
2022-12-31T20:44:27.928Z,12.50
2022-12-31T20:46:36.054Z,12.47
2022-12-31T20:48:44.295Z,12.42
2022-12-31T20:51:00.253Z,12.42
2022-12-31T20:53:07.986Z,12.28
2022-12-31T20:55:18.179Z,12.15
2022-12-31T20:57:30.160Z,12.05
2022-12-31T20:59:41.170Z,11.94
2022-12-31T21:02:20.014Z,11.88
2022-12-31T21:04:17.119Z,11.78
2022-12-31T21:06:28.271Z,11.66
2022-12-31T21:08:37.307Z,11.62
2022-12-31T21:10:45.363Z,11.55
2022-12-31T21:12:53.627Z,11.50
2022-12-31T21:15:02.544Z,11.48
2022-12-31T21:17:10.273Z,11.52
2022-12-31T21:19:18.014Z,11.46
2022-12-31T21:21:28.484Z,11.38
2022-12-31T21:23:36.241Z,11.34
2022-12-31T21:25:46.427Z,11.34
2022-12-31T21:27:54.183Z,11.30
2022-12-31T21:30:18.109Z,11.27
2022-12-31T21:32:27.798Z,11.22
2022-12-31T21:34:35.916Z,11.19
2022-12-31T21:36:48.983Z,11.16
2022-12-31T21:38:56.915Z,11.15
2022-12-31T21:41:05.178Z,11.10
2022-12-31T21:43:12.979Z,11.01
2022-12-31T21:45:20.814Z,10.97
2022-12-31T21:47:47.510Z,10.90
2022-12-31T21:49:56.288Z,10.83
2022-12-31T21:52:19.472Z,10.81
2022-12-31T21:54:39.756Z,10.88
2022-12-31T21:56:47.509Z,10.92
2022-12-31T21:59:09.815Z,10.90
2022-12-31T22:01:35.081Z,10.93
2022-12-31T22:03:43.047Z,10.95
2022-12-31T22:05:53.833Z,11.04
2022-12-31T22:08:04.257Z,10.95
2022-12-31T22:10:12.589Z,10.83
2022-12-31T22:12:20.433Z,10.80
2022-12-31T22:14:28.388Z,10.78
2022-12-31T22:16:36.337Z,10.73
2022-12-31T22:18:45.488Z,10.67
2022-12-31T22:21:02.742Z,10.60
2022-12-31T22:23:13.307Z,10.56
2022-12-31T22:25:21.314Z,10.60
2022-12-31T22:27:30.123Z,10.52
2022-12-31T22:29:37.983Z,10.52
2022-12-31T22:31:45.889Z,10.49
2022-12-31T22:33:53.824Z,10.52
2022-12-31T22:36:07.162Z,10.63
2022-12-31T22:38:17.614Z,10.67
2022-12-31T22:40:25.367Z,10.62
2022-12-31T22:42:33.230Z,10.55
2022-12-31T22:44:41.088Z,10.57
2022-12-31T22:46:49.367Z,10.49
2022-12-31T22:49:00.361Z,10.45
2022-12-31T22:51:08.948Z,10.54
2022-12-31T22:53:19.367Z,10.53
2022-12-31T22:55:27.183Z,10.59
2022-12-31T22:57:35.065Z,10.57
2022-12-31T22:59:42.911Z,10.51
2022-12-31T23:01:50.756Z,10.52
2022-12-31T23:03:58.893Z,10.58
2022-12-31T23:06:06.983Z,10.74
2022-12-31T23:08:22.231Z,10.87
2022-12-31T23:10:46.215Z,10.95
2022-12-31T23:12:54.089Z,11.02
2022-12-31T23:15:14.351Z,11.02
2022-12-31T23:17:37.123Z,10.93
2022-12-31T23:19:57.349Z,10.90
2022-12-31T23:22:17.585Z,10.84
2022-12-31T23:24:26.689Z,10.95
2022-12-31T23:26:37.270Z,10.92
2022-12-31T23:28:45.114Z,10.96
2022-12-31T23:30:53.770Z,10.88
2022-12-31T23:33:01.675Z,10.92
2022-12-31T23:35:10.494Z,10.94
2022-12-31T23:37:18.913Z,10.92
2022-12-31T23:39:26.769Z,10.80
2022-12-31T23:41:37.587Z,10.80
2022-12-31T23:43:45.528Z,10.82
2022-12-31T23:45:53.885Z,10.78
2022-12-31T23:48:02.109Z,10.83
2022-12-31T23:50:11.313Z,10.87
2022-12-31T23:52:19.057Z,10.95
2022-12-31T23:54:26.903Z,11.02
2022-12-31T23:56:37.463Z,11.10
2022-12-31T23:58:45.479Z,11.15
